Terminal Aerodrome Forecast
Issued by NWS

Home | Current Version | Previous Version | Text Only | Print | Product List | Glossary On
Versions: 1 2 3 4 5 6 7 8 9 10 11 12 13 14
000
FTUS43 KMQT 261911 AAB
TAFCMX
TAF AMD
KCMX 261911Z 2619/2718 30010KT P6SM SCT025
     FM262100 28007KT P6SM FEW200
     FM270200 08003KT P6SM FEW200
     FM271500 14006KT P6SM SCT200=

USA.gov is the U.S. government's official web portal to all federal, state and local government web resources and services.